Time;durP1;ratioP1;P1;durP2;ratioP2;P2;SDS_P1;SDS_P2;PMS_P1;PMS_P2;Temp;Humidity;BMP_temperature;BMP_pressure;BME280_temperature;BME280_humidity;BME280_pressure;Samples;Min_cycle;Max_cycle;Signal;HPM_P1;HPM_P2
2024/03/20 00:00:14;;;;;;;37.42;7.80;;;14.40;94.00;;;;;;5027880;28;20031;-57
2024/03/20 00:02:40;;;;;;;34.97;6.85;;;14.30;93.90;;;;;;5045701;28;20085;-57
2024/03/20 00:05:06;;;;;;;42.15;7.00;;;14.30;94.00;;;;;;5011362;28;20500;-57
2024/03/20 00:07:32;;;;;;;45.58;7.35;;;14.30;94.00;;;;;;5011607;28;20083;-57
2024/03/20 00:09:57;;;;;;;47.70;7.55;;;14.30;94.00;;;;;;5011254;28;20045;-57
2024/03/20 00:12:23;;;;;;;40.58;6.10;;;14.20;94.00;;;;;;5027328;28;20029;-57
2024/03/20 00:14:49;;;;;;;39.83;7.63;;;14.20;94.00;;;;;;5027656;28;20060;-57
2024/03/20 00:17:15;;;;;;;43.35;7.22;;;14.20;94.10;;;;;;5045307;28;20033;-57
2024/03/20 00:19:40;;;;;;;37.72;7.15;;;14.10;94.10;;;;;;5045350;28;20104;-57
2024/03/20 00:22:06;;;;;;;42.42;6.65;;;14.10;94.10;;;;;;5045355;28;20029;-57
2024/03/20 00:24:32;;;;;;;32.83;5.88;;;14.10;94.20;;;;;;5027380;28;20041;-57
2024/03/20 00:26:58;;;;;;;32.53;6.20;;;14.10;94.10;;;;;;5027242;28;20498;-57
2024/03/20 00:29:23;;;;;;;32.53;6.30;;;14.10;94.20;;;;;;5010961;28;20089;-57
2024/03/20 00:31:52;;;;;;;40.95;7.10;;;14.00;94.30;;;;;;5010720;28;20039;-57
2024/03/20 00:34:18;;;;;;;28.30;6.30;;;14.00;94.30;;;;;;5044956;28;20171;-57
2024/03/20 00:36:44;;;;;;;32.03;5.55;;;14.00;94.30;;;;;;5010942;28;20030;-57
2024/03/20 00:39:09;;;;;;;28.40;6.30;;;13.90;94.30;;;;;;5027097;28;20025;-57
2024/03/20 00:41:35;;;;;;;28.83;5.38;;;13.90;94.40;;;;;;5044813;28;20059;-57
2024/03/20 00:44:00;;;;;;;37.20;5.95;;;13.90;94.30;;;;;;5027044;28;20112;-57
2024/03/20 00:46:26;;;;;;;36.58;6.20;;;13.90;94.30;;;;;;5044538;28;20060;-57
2024/03/20 00:48:52;;;;;;;30.45;5.68;;;13.90;94.40;;;;;;5044933;28;20080;-57
2024/03/20 00:51:18;;;;;;;35.08;6.20;;;13.90;94.50;;;;;;5027120;28;20052;-58
2024/03/20 00:53:43;;;;;;;29.27;6.13;;;13.80;94.50;;;;;;5026869;28;20064;-57
2024/03/20 00:56:09;;;;;;;31.15;5.63;;;13.80;94.40;;;;;;5010696;28;20044;-57
2024/03/20 00:58:34;;;;;;;27.92;5.75;;;13.80;94.40;;;;;;5026802;28;20056;-57
2024/03/20 01:01:00;;;;;;;23.02;5.40;;;13.70;94.40;;;;;;5010471;28;20105;-57
2024/03/20 01:03:26;;;;;;;30.65;5.65;;;13.70;94.40;;;;;;5010262;28;20033;-57
2024/03/20 01:05:53;;;;;;;23.90;5.13;;;13.70;94.60;;;;;;5010122;28;20026;-57
2024/03/20 01:08:18;;;;;;;31.60;5.60;;;13.70;94.70;;;;;;5045350;28;20102;-57
2024/03/20 01:10:44;;;;;;;23.92;5.43;;;13.60;94.70;;;;;;5026527;28;20029;-57
2024/03/20 01:13:10;;;;;;;18.13;5.05;;;13.60;94.70;;;;;;4994204;28;20092;-57
2024/03/20 01:15:36;;;;;;;20.55;4.72;;;13.60;94.80;;;;;;5043909;28;20055;-57
2024/03/20 01:18:01;;;;;;;27.85;6.65;;;13.50;94.70;;;;;;5026362;28;20089;-57
2024/03/20 01:20:27;;;;;;;22.52;5.38;;;13.60;94.70;;;;;;5009943;28;20067;-57
2024/03/20 01:22:53;;;;;;;24.48;5.22;;;13.50;94.70;;;;;;5010241;28;20113;-57
2024/03/20 01:25:19;;;;;;;21.45;4.70;;;13.50;94.80;;;;;;5009973;28;20082;-57
2024/03/20 01:27:45;;;;;;;22.80;5.40;;;13.50;94.80;;;;;;5026255;28;20034;-57
2024/03/20 01:30:12;;;;;;;21.27;4.93;;;13.50;94.90;;;;;;5010370;28;20029;-57
2024/03/20 01:32:38;;;;;;;31.40;6.18;;;13.40;94.90;;;;;;5009784;28;20041;-57
2024/03/20 01:35:04;;;;;;;21.90;4.75;;;13.40;94.90;;;;;;5026264;28;20029;-57
2024/03/20 01:37:30;;;;;;;25.10;5.13;;;13.40;94.90;;;;;;5009805;28;20033;-57
2024/03/20 01:39:56;;;;;;;25.50;5.28;;;13.40;94.90;;;;;;5026408;28;20095;-57
2024/03/20 01:42:21;;;;;;;23.00;4.57;;;13.30;94.90;;;;;;5043946;28;20021;-57
2024/03/20 01:44:47;;;;;;;14.70;4.15;;;13.40;94.90;;;;;;4993498;28;20371;-57
2024/03/20 01:47:13;;;;;;;22.08;4.70;;;13.30;94.90;;;;;;5026177;28;20119;-57
2024/03/20 01:49:38;;;;;;;19.63;4.88;;;13.30;94.90;;;;;;5026058;28;20094;-57
2024/03/20 01:52:04;;;;;;;19.80;4.35;;;13.30;95.00;;;;;;5009827;28;20037;-57
2024/03/20 01:54:30;;;;;;;20.00;4.30;;;13.20;95.00;;;;;;5026078;28;20048;-57
2024/03/20 01:56:56;;;;;;;16.50;4.45;;;13.20;95.10;;;;;;5025929;28;20037;-57
2024/03/20 01:59:21;;;;;;;22.77;4.28;;;13.20;95.10;;;;;;5026211;28;20021;-57
2024/03/20 02:01:47;;;;;;;16.60;4.68;;;13.20;95.20;;;;;;5043670;28;20026;-57
2024/03/20 02:04:13;;;;;;;17.73;3.83;;;13.20;95.20;;;;;;5009510;28;20022;-57
2024/03/20 02:06:38;;;;;;;18.50;4.32;;;13.10;95.20;;;;;;5025897;28;20036;-57
2024/03/20 02:09:07;;;;;;;15.85;4.07;;;13.10;95.20;;;;;;5026022;28;20021;-57
2024/03/20 02:11:33;;;;;;;13.68;4.10;;;13.10;95.20;;;;;;5025754;28;20445;-57
2024/03/20 02:13:58;;;;;;;19.00;3.97;;;13.00;95.20;;;;;;5026077;28;20018;-57
2024/03/20 02:16:25;;;;;;;22.05;4.60;;;13.00;95.20;;;;;;5043512;28;20018;-57
2024/03/20 02:18:51;;;;;;;13.45;4.22;;;13.00;95.30;;;;;;5043806;28;20029;-57
2024/03/20 02:21:21;;;;;;;11.50;3.53;;;13.00;95.30;;;;;;5009665;28;20030;-57
2024/03/20 02:23:47;;;;;;;16.15;4.75;;;13.00;95.40;;;;;;5026265;28;20037;-57
2024/03/20 02:26:13;;;;;;;14.90;3.20;;;12.90;95.40;;;;;;5025963;28;20021;-57
2024/03/20 02:28:40;;;;;;;10.27;3.40;;;12.80;95.40;;;;;;5029459;28;20136;-57
2024/03/20 02:31:06;;;;;;;20.27;3.33;;;12.90;95.40;;;;;;5013146;28;20455;-57
2024/03/20 02:33:32;;;;;;;8.70;3.33;;;12.80;95.40;;;;;;5029649;28;20037;-57
2024/03/20 02:35:58;;;;;;;16.98;3.45;;;12.90;95.50;;;;;;5029508;28;20026;-57
2024/03/20 02:38:30;;;;;;;13.18;3.53;;;12.80;95.40;;;;;;5012970;28;20041;-57
2024/03/20 02:40:56;;;;;;;11.32;3.42;;;12.80;95.30;;;;;;5013332;28;20108;-57
2024/03/20 02:43:25;;;;;;;12.75;3.75;;;12.90;95.30;;;;;;5013046;28;20042;-57
2024/03/20 02:45:51;;;;;;;13.45;3.70;;;12.80;95.30;;;;;;5029380;28;20033;-57
2024/03/20 02:48:16;;;;;;;11.00;3.60;;;12.80;95.40;;;;;;5029234;28;20033;-57
2024/03/20 02:50:42;;;;;;;11.52;3.60;;;12.80;95.40;;;;;;5029488;28;20030;-57
2024/03/20 02:53:08;;;;;;;9.45;3.65;;;12.80;95.40;;;;;;5012517;28;20494;-57
2024/03/20 02:55:34;;;;;;;15.60;3.90;;;12.70;95.50;;;;;;5029018;28;20033;-57
2024/03/20 02:58:00;;;;;;;21.92;3.78;;;12.70;95.50;;;;;;5012618;28;20038;-57
2024/03/20 03:00:26;;;;;;;15.57;3.50;;;12.60;95.50;;;;;;5029076;28;20025;-57
2024/03/20 03:02:54;;;;;;;13.38;3.47;;;12.60;95.60;;;;;;5046791;28;20033;-57
2024/03/20 03:05:22;;;;;;;14.52;3.00;;;12.60;95.60;;;;;;5029238;28;20025;-57
2024/03/20 03:07:48;;;;;;;12.52;3.35;;;12.60;95.60;;;;;;5029008;28;20114;-57
2024/03/20 03:10:15;;;;;;;14.40;3.45;;;12.60;95.60;;;;;;5046800;28;20496;-57
2024/03/20 03:12:42;;;;;;;8.25;3.17;;;12.60;95.60;;;;;;5012729;28;20060;-57
2024/03/20 03:15:08;;;;;;;14.13;3.30;;;12.50;95.60;;;;;;5028564;28;20107;-58
2024/03/20 03:17:34;;;;;;;12.88;3.42;;;12.50;95.80;;;;;;5047270;28;20040;-57
2024/03/20 03:19:59;;;;;;;10.27;3.42;;;12.50;95.80;;;;;;5029322;28;20426;-57
2024/03/20 03:22:25;;;;;;;11.63;3.30;;;12.50;95.80;;;;;;5029512;28;20037;-57
2024/03/20 03:24:51;;;;;;;8.77;2.53;;;12.50;95.70;;;;;;5028860;28;20025;-57
2024/03/20 03:27:16;;;;;;;14.40;3.72;;;12.40;95.80;;;;;;5046010;28;20103;-57
2024/03/20 03:29:42;;;;;;;9.00;3.20;;;12.40;95.80;;;;;;5012275;28;20424;-57
2024/03/20 03:32:08;;;;;;;9.85;3.40;;;12.40;95.80;;;;;;5046249;28;20038;-57
2024/03/20 03:34:33;;;;;;;10.38;3.10;;;12.40;95.80;;;;;;5028219;28;20026;-57
2024/03/20 03:36:59;;;;;;;12.00;3.13;;;12.40;95.70;;;;;;5028084;28;20143;-57
2024/03/20 03:39:24;;;;;;;10.10;3.05;;;12.40;95.70;;;;;;5045969;28;20021;-57
2024/03/20 03:41:50;;;;;;;14.23;3.17;;;12.40;95.70;;;;;;5028155;28;20034;-57
2024/03/20 03:44:16;;;;;;;9.48;2.60;;;12.40;95.70;;;;;;5028180;28;20021;-57
2024/03/20 03:46:41;;;;;;;12.77;3.15;;;12.30;95.70;;;;;;5028250;28;20029;-57
2024/03/20 03:49:08;;;;;;;8.30;3.15;;;12.30;95.80;;;;;;5046041;28;20029;-57
2024/03/20 03:51:34;;;;;;;9.68;3.10;;;12.20;95.80;;;;;;5045952;28;20025;-57
2024/03/20 03:54:00;;;;;;;7.95;2.70;;;12.20;95.80;;;;;;5027800;28;20037;-57
2024/03/20 03:56:26;;;;;;;10.23;2.92;;;12.20;95.80;;;;;;5011187;28;20048;-57
2024/03/20 03:58:51;;;;;;;7.50;3.20;;;12.20;95.90;;;;;;5027805;28;20025;-57
2024/03/20 04:01:17;;;;;;;10.48;3.00;;;12.20;95.90;;;;;;5027642;28;20083;-57
2024/03/20 04:03:42;;;;;;;10.70;2.60;;;12.20;95.90;;;;;;5027654;28;20503;-57
2024/03/20 04:06:08;;;;;;;6.97;2.75;;;12.10;95.90;;;;;;5027976;28;20021;-57
2024/03/20 04:08:34;;;;;;;7.45;2.95;;;12.10;95.90;;;;;;5027879;28;20058;-57
2024/03/20 04:11:00;;;;;;;8.18;3.20;;;12.10;95.90;;;;;;5028193;28;20082;-57
2024/03/20 04:13:25;;;;;;;8.63;2.65;;;12.10;96.00;;;;;;5027490;28;20184;-57
2024/03/20 04:15:53;;;;;;;8.73;3.50;;;12.10;96.00;;;;;;5011274;28;20027;-57
2024/03/20 04:18:19;;;;;;;7.22;2.63;;;12.10;96.10;;;;;;5045438;28;20130;-57
2024/03/20 04:20:45;;;;;;;6.97;2.80;;;12.00;96.00;;;;;;5011225;28;20133;-57
2024/03/20 04:23:10;;;;;;;10.93;3.05;;;12.00;96.00;;;;;;5027330;28;20140;-57
2024/03/20 04:25:36;;;;;;;8.13;2.92;;;12.00;96.00;;;;;;5027348;28;20075;-57
2024/03/20 04:28:02;;;;;;;6.20;2.58;;;12.00;96.00;;;;;;5045212;28;20380;-57
2024/03/20 04:30:28;;;;;;;6.25;2.40;;;11.90;96.00;;;;;;4994812;28;20036;-57
2024/03/20 04:32:53;;;;;;;10.23;2.70;;;12.00;96.00;;;;;;5045222;28;20033;-57
2024/03/20 04:35:19;;;;;;;8.20;2.90;;;11.90;96.00;;;;;;5010765;28;20356;-57
2024/03/20 04:37:45;;;;;;;8.50;2.92;;;12.00;96.00;;;;;;5027163;28;20040;-57
2024/03/20 04:40:10;;;;;;;5.82;2.83;;;12.00;95.90;;;;;;5027191;28;20543;-57
2024/03/20 04:42:36;;;;;;;9.57;3.05;;;12.00;95.90;;;;;;5027118;28;20029;-57
2024/03/20 04:45:02;;;;;;;10.40;2.67;;;11.90;95.90;;;;;;5010580;28;20028;-56
2024/03/20 04:47:28;;;;;;;6.72;2.20;;;11.90;95.90;;;;;;5044852;28;20495;-57
2024/03/20 04:49:53;;;;;;;5.68;2.35;;;11.80;96.00;;;;;;5026123;28;20025;-57
2024/03/20 04:52:19;;;;;;;5.50;2.47;;;11.80;96.10;;;;;;5026852;28;20044;-57
2024/03/20 04:54:45;;;;;;;5.95;2.60;;;11.80;96.00;;;;;;5026640;28;20034;-57
2024/03/20 04:57:10;;;;;;;9.52;2.45;;;11.80;96.00;;;;;;5010343;28;20060;-57
2024/03/20 04:59:36;;;;;;;10.05;2.83;;;11.80;96.10;;;;;;5010603;28;20336;-57
2024/03/20 05:02:02;;;;;;;9.93;2.25;;;11.70;96.00;;;;;;5044365;28;20104;-57
2024/03/20 05:04:28;;;;;;;4.18;2.58;;;11.70;96.10;;;;;;5010359;28;20464;-57
2024/03/20 05:06:53;;;;;;;8.27;2.58;;;11.80;96.10;;;;;;5044300;28;20037;-57
2024/03/20 05:09:19;;;;;;;7.55;2.60;;;11.70;96.00;;;;;;5026596;28;20080;-57
2024/03/20 05:11:48;;;;;;;7.40;2.53;;;11.70;96.10;;;;;;4994060;28;20099;-57
2024/03/20 05:14:14;;;;;;;5.93;2.47;;;11.70;96.10;;;;;;5044117;28;20030;-57
2024/03/20 05:16:40;;;;;;;3.60;2.25;;;11.70;96.00;;;;;;5044079;28;20089;-57
2024/03/20 05:19:06;;;;;;;6.13;2.10;;;11.70;96.00;;;;;;5026474;28;20044;-57
2024/03/20 05:21:32;;;;;;;5.72;2.25;;;11.60;96.00;;;;;;5010116;28;20033;-57
2024/03/20 05:23:57;;;;;;;7.32;3.10;;;11.60;96.00;;;;;;5010037;28;20125;-57
2024/03/20 05:26:23;;;;;;;7.20;2.53;;;11.60;96.00;;;;;;5009994;28;20038;-57
2024/03/20 05:28:49;;;;;;;8.80;2.70;;;11.60;96.00;;;;;;5026261;28;20025;-57
2024/03/20 05:31:26;;;;;;;9.38;2.25;;;11.60;96.00;;;;;;5026237;28;20025;-57
2024/03/20 05:33:51;;;;;;;11.20;2.67;;;11.60;96.00;;;;;;4998026;28;20034;-57
2024/03/20 05:36:17;;;;;;;9.07;2.50;;;11.60;96.00;;;;;;5006188;28;20025;-57
2024/03/20 05:38:43;;;;;;;8.40;2.50;;;11.50;96.00;;;;;;5006175;28;20089;-57
2024/03/20 05:41:08;;;;;;;8.25;2.80;;;11.50;96.00;;;;;;5006569;28;20564;-57
2024/03/20 05:43:35;;;;;;;13.48;3.05;;;11.50;96.10;;;;;;4990453;28;20030;-57
2024/03/20 05:46:00;;;;;;;14.82;2.45;;;11.50;96.10;;;;;;5006736;28;20022;-57
2024/03/20 05:48:26;;;;;;;8.88;2.85;;;11.50;96.10;;;;;;5006267;28;20084;-57
2024/03/20 05:50:51;;;;;;;19.10;3.20;;;11.50;96.00;;;;;;4990322;28;20116;-57
2024/03/20 05:53:18;;;;;;;9.07;2.90;;;11.50;96.10;;;;;;5006327;28;20061;-57
2024/03/20 05:55:44;;;;;;;9.55;2.72;;;11.50;96.10;;;;;;5024050;28;20479;-57
2024/03/20 05:58:10;;;;;;;18.40;3.15;;;11.50;96.10;;;;;;5006105;28;20049;-57
2024/03/20 06:00:35;;;;;;;22.67;3.83;;;11.50;96.10;;;;;;5024493;28;20022;-57
2024/03/20 06:03:01;;;;;;;18.20;3.45;;;11.50;96.20;;;;;;5010273;28;20034;-57
2024/03/20 06:05:27;;;;;;;22.15;3.60;;;11.40;96.20;;;;;;5010354;28;20018;-57
2024/03/20 06:07:55;;;;;;;19.80;3.80;;;11.50;96.20;;;;;;5010310;28;20038;-57
2024/03/20 06:10:21;;;;;;;23.55;4.57;;;11.50;96.20;;;;;;5010601;28;20026;-57
2024/03/20 06:12:47;;;;;;;17.08;3.80;;;11.40;96.30;;;;;;4994111;28;20091;-57
2024/03/20 06:15:13;;;;;;;26.17;4.57;;;11.40;96.30;;;;;;5027987;28;20468;-57
2024/03/20 06:17:39;;;;;;;28.75;3.63;;;11.40;96.30;;;;;;5010420;28;20089;-57
2024/03/20 06:20:06;;;;;;;22.90;4.65;;;11.40;96.30;;;;;;5027864;28;20033;-57
2024/03/20 06:22:33;;;;;;;27.25;4.45;;;11.40;96.30;;;;;;4994802;28;20060;-58
2024/03/20 06:25:01;;;;;;;24.27;5.00;;;11.40;96.30;;;;;;4993684;28;20032;-57
2024/03/20 06:27:26;;;;;;;25.60;5.35;;;11.40;96.40;;;;;;5027869;28;20068;-57
2024/03/20 06:29:52;;;;;;;46.15;7.72;;;11.40;96.40;;;;;;5010314;28;20025;-57
2024/03/20 06:32:21;;;;;;;43.80;6.85;;;11.40;96.50;;;;;;5010160;28;20468;-57
2024/03/20 06:34:46;;;;;;;44.92;6.88;;;11.40;96.50;;;;;;5027920;28;20092;-57
2024/03/20 06:37:14;;;;;;;47.65;8.27;;;11.40;96.50;;;;;;5028774;28;20046;-57
2024/03/20 06:39:41;;;;;;;48.10;8.48;;;11.40;96.50;;;;;;5010781;28;20018;-57
2024/03/20 06:42:16;;;;;;;56.25;7.68;;;11.40;96.50;;;;;;4993459;28;20120;-57
2024/03/20 06:44:42;;;;;;;44.03;6.70;;;11.40;96.60;;;;;;5011107;28;20022;-57
2024/03/20 06:47:07;;;;;;;36.30;7.70;;;11.40;96.60;;;;;;5027237;28;20289;-57
2024/03/20 06:49:33;;;;;;;42.83;6.82;;;11.40;96.60;;;;;;4993217;28;20060;-57
2024/03/20 06:51:59;;;;;;;45.88;7.88;;;11.40;96.60;;;;;;4993514;28;20114;-57
2024/03/20 06:54:26;;;;;;;39.40;7.10;;;11.40;96.60;;;;;;4993051;28;20038;-57
2024/03/20 06:56:58;;;;;;;47.03;7.82;;;11.40;96.60;;;;;;5009427;28;20137;-58
2024/03/20 06:59:24;;;;;;;48.88;8.55;;;11.40;96.60;;;;;;4994707;28;20033;-57
2024/03/20 07:01:50;;;;;;;54.60;8.05;;;11.40;96.60;;;;;;4993980;28;20034;-57
2024/03/20 07:04:15;;;;;;;42.20;7.72;;;11.40;96.70;;;;;;4998942;28;20025;-57
2024/03/20 07:06:41;;;;;;;45.70;7.78;;;11.40;96.70;;;;;;5028164;28;20049;-57
2024/03/20 07:09:08;;;;;;;37.67;7.80;;;11.30;96.70;;;;;;5010409;28;20021;-57
2024/03/20 07:11:34;;;;;;;42.45;7.05;;;11.30;96.70;;;;;;5023497;28;20506;-57
2024/03/20 07:14:00;;;;;;;53.38;8.13;;;11.30;96.70;;;;;;5004141;28;20026;-57
2024/03/20 07:16:26;;;;;;;46.40;7.80;;;11.30;96.80;;;;;;5025831;28;20126;-57
2024/03/20 07:18:52;;;;;;;46.55;8.02;;;11.30;96.80;;;;;;5007901;28;20038;-57
2024/03/20 07:21:20;;;;;;;34.08;7.47;;;11.30;96.90;;;;;;5026014;28;20029;-57
2024/03/20 07:23:46;;;;;;;49.67;9.23;;;11.30;96.90;;;;;;5009359;28;20551;-57
2024/03/20 07:26:12;;;;;;;50.92;8.40;;;11.30;96.80;;;;;;5009135;28;20045;-57
2024/03/20 07:28:39;;;;;;;59.88;9.48;;;11.30;96.90;;;;;;5007420;28;20102;-57
2024/03/20 07:31:05;;;;;;;37.33;7.25;;;11.40;96.90;;;;;;4992490;28;20053;-58
2024/03/20 07:33:31;;;;;;;58.97;8.57;;;11.30;96.90;;;;;;4995161;28;20076;-57
2024/03/20 07:35:58;;;;;;;61.42;8.05;;;11.40;97.00;;;;;;5010680;28;20456;-57
2024/03/20 07:38:23;;;;;;;38.08;8.18;;;11.30;97.00;;;;;;5046022;28;20049;-57
2024/03/20 07:40:55;;;;;;;47.78;7.85;;;11.40;97.00;;;;;;5043877;28;20447;-57
2024/03/20 07:43:21;;;;;;;67.88;8.85;;;11.40;97.00;;;;;;5025327;28;20060;-57
2024/03/20 07:45:47;;;;;;;45.08;7.15;;;11.40;97.00;;;;;;5030664;28;20063;-57
2024/03/20 07:48:12;;;;;;;40.55;9.32;;;11.30;97.00;;;;;;5028038;28;20093;-57
2024/03/20 07:50:39;;;;;;;113.55;11.85;;;11.40;97.00;;;;;;5028116;28;20029;-57
2024/03/20 07:53:05;;;;;;;77.63;11.63;;;11.40;97.00;;;;;;4977099;28;20041;-57
2024/03/20 07:55:31;;;;;;;66.60;10.77;;;11.40;97.00;;;;;;5025807;28;20081;-57
2024/03/20 07:57:57;;;;;;;334.02;32.90;;;11.40;97.00;;;;;;5007839;28;20048;-57
2024/03/20 08:00:28;;;;;;;167.55;20.15;;;11.40;97.10;;;;;;5011530;28;20037;-57
2024/03/20 08:02:56;;;;;;;68.40;10.25;;;11.40;97.20;;;;;;5023684;28;20091;-57
2024/03/20 08:05:28;;;;;;;64.38;11.30;;;11.40;97.10;;;;;;5025981;28;20026;-57
2024/03/20 08:07:53;;;;;;;75.00;10.55;;;11.40;97.00;;;;;;5025867;28;20042;-57
2024/03/20 08:10:19;;;;;;;86.20;12.88;;;11.40;97.00;;;;;;5007847;28;20040;-59
2024/03/20 08:12:45;;;;;;;94.43;15.38;;;11.40;97.10;;;;;;4994725;28;20030;-59
2024/03/20 08:15:10;;;;;;;103.10;12.57;;;11.50;97.20;;;;;;5020731;28;20030;-60
2024/03/20 08:17:37;;;;;;;99.82;13.18;;;11.50;97.30;;;;;;5025710;28;20037;-59
2024/03/20 08:20:12;;;;;;;92.32;12.75;;;11.50;97.50;;;;;;5007709;28;20105;-60
2024/03/20 08:22:41;;;;;;;105.70;14.23;;;11.50;97.40;;;;;;5039000;28;20053;-60
2024/03/20 08:25:08;;;;;;;133.40;14.23;;;11.50;97.30;;;;;;5010921;28;20030;-59
2024/03/20 08:27:34;;;;;;;94.57;13.85;;;11.50;97.30;;;;;;4994917;28;20025;-59
2024/03/20 08:30:01;;;;;;;103.07;14.50;;;11.50;97.40;;;;;;4994975;28;20051;-60
2024/03/20 08:32:26;;;;;;;100.32;13.60;;;11.50;97.30;;;;;;5044984;28;20109;-59
2024/03/20 08:34:52;;;;;;;114.60;15.68;;;11.50;97.30;;;;;;5027371;28;20159;-59
2024/03/20 08:37:18;;;;;;;136.40;18.35;;;11.50;97.40;;;;;;5027342;28;20061;-59
2024/03/20 08:39:43;;;;;;;124.53;16.77;;;11.50;97.30;;;;;;5040576;28;20077;-59
2024/03/20 08:42:09;;;;;;;188.30;24.05;;;11.60;97.50;;;;;;4991524;28;20064;-59
2024/03/20 08:44:35;;;;;;;198.07;22.80;;;11.60;97.60;;;;;;5024127;28;20108;-59
2024/03/20 08:47:00;;;;;;;234.48;26.70;;;11.60;97.70;;;;;;5004423;28;20107;-59
2024/03/20 08:49:26;;;;;;;194.40;23.40;;;11.60;97.90;;;;;;5006579;28;20025;-59
2024/03/20 08:51:53;;;;;;;305.02;33.38;;;11.70;97.80;;;;;;4990428;28;20034;-59
2024/03/20 08:54:20;;;;;;;165.27;24.38;;;11.70;97.80;;;;;;4987415;28;20038;-59
2024/03/20 08:56:46;;;;;;;164.90;22.15;;;11.70;97.90;;;;;;4987150;28;20041;-59
2024/03/20 08:59:12;;;;;;;202.02;23.23;;;11.70;98.10;;;;;;4984422;28;20037;-59
2024/03/20 09:01:37;;;;;;;178.82;24.77;;;11.70;98.00;;;;;;5006202;28;20361;-59
2024/03/20 09:04:03;;;;;;;112.63;16.95;;;11.70;97.90;;;;;;5023532;28;20022;-59
2024/03/20 09:06:29;;;;;;;105.38;15.45;;;11.70;97.70;;;;;;5024068;28;20021;-59
2024/03/20 09:08:55;;;;;;;99.75;16.52;;;11.70;97.70;;;;;;4990144;28;20022;-60
2024/03/20 09:11:20;;;;;;;100.13;13.98;;;11.70;97.60;;;;;;4990198;28;20052;-59
2024/03/20 09:13:46;;;;;;;122.35;16.38;;;11.70;97.60;;;;;;4990074;28;20113;-59
2024/03/20 09:16:12;;;;;;;92.82;16.10;;;11.80;97.70;;;;;;5023563;28;20026;-59
2024/03/20 09:18:38;;;;;;;103.22;15.20;;;11.70;97.90;;;;;;5006020;28;20034;-59
2024/03/20 09:21:03;;;;;;;103.00;14.65;;;11.70;98.00;;;;;;4989826;28;20030;-59
2024/03/20 09:23:29;;;;;;;118.35;14.63;;;11.80;98.10;;;;;;5024034;28;20084;-59
2024/03/20 09:25:55;;;;;;;118.63;15.07;;;11.80;98.20;;;;;;5024070;28;20018;-59
2024/03/20 09:28:20;;;;;;;116.72;15.88;;;11.80;98.20;;;;;;5006074;28;20040;-59
2024/03/20 09:30:46;;;;;;;103.18;14.18;;;11.90;98.30;;;;;;5023430;28;20087;-59
2024/03/20 09:33:11;;;;;;;98.50;14.73;;;11.90;98.50;;;;;;5023920;28;20114;-59
2024/03/20 09:35:38;;;;;;;86.63;13.88;;;11.90;98.50;;;;;;5005624;28;20045;-59
2024/03/20 09:38:03;;;;;;;83.20;13.45;;;11.90;98.40;;;;;;5006534;28;20038;-59
2024/03/20 09:40:29;;;;;;;100.97;14.77;;;11.90;98.50;;;;;;5004970;28;20375;-59
2024/03/20 09:42:55;;;;;;;85.93;14.25;;;11.90;98.50;;;;;;4990186;28;20046;-59
2024/03/20 09:45:23;;;;;;;78.15;13.05;;;11.90;98.50;;;;;;5001085;28;20025;-59
2024/03/20 09:47:52;;;;;;;89.32;14.23;;;12.00;98.60;;;;;;5003329;28;20045;-59
2024/03/20 09:50:18;;;;;;;78.38;12.70;;;12.00;98.50;;;;;;5012509;28;20037;-59
2024/03/20 09:52:47;;;;;;;79.60;12.30;;;12.00;98.60;;;;;;5006148;28;20064;-59
2024/03/20 09:55:17;;;;;;;129.73;14.27;;;12.10;98.60;;;;;;5006165;28;20044;-59
2024/03/20 09:57:46;;;;;;;100.70;15.65;;;12.10;98.90;;;;;;5022995;28;20038;-59
2024/03/20 10:00:16;;;;;;;124.20;15.63;;;12.10;98.80;;;;;;5005033;28;20441;-59
2024/03/20 10:02:46;;;;;;;92.65;13.32;;;12.20;98.80;;;;;;5023784;28;20038;-59
2024/03/20 10:05:15;;;;;;;106.50;15.20;;;12.20;98.90;;;;;;5003839;28;20026;-59
2024/03/20 10:07:44;;;;;;;85.60;13.93;;;12.20;98.80;;;;;;5004908;28;20077;-59
2024/03/20 10:10:12;;;;;;;69.97;10.88;;;12.30;98.70;;;;;;5005396;28;20038;-59
2024/03/20 10:12:41;;;;;;;59.65;11.40;;;12.30;98.60;;;;;;5023706;28;20033;-60
2024/03/20 10:15:08;;;;;;;74.00;11.50;;;12.30;98.50;;;;;;5006184;28;20052;-59
2024/03/20 10:17:34;;;;;;;66.07;10.25;;;12.30;98.50;;;;;;5002987;28;20148;-59
2024/03/20 10:20:14;;;;;;;61.70;10.57;;;12.30;98.50;;;;;;5001008;28;20082;-59
2024/03/20 10:22:40;;;;;;;62.78;10.82;;;12.40;98.70;;;;;;5005617;28;20030;-59
2024/03/20 10:25:07;;;;;;;57.92;11.85;;;12.40;98.60;;;;;;5005047;28;20026;-59
2024/03/20 10:27:36;;;;;;;59.80;10.77;;;12.40;98.50;;;;;;5023659;28;20087;-59
2024/03/20 10:30:03;;;;;;;148.45;16.92;;;12.40;98.50;;;;;;4988568;28;20373;-60
2024/03/20 10:32:30;;;;;;;97.97;12.75;;;12.50;98.60;;;;;;5005191;28;20062;-59
2024/03/20 10:34:56;;;;;;;78.10;13.38;;;12.50;98.60;;;;;;4988302;28;20449;-59
2024/03/20 10:37:21;;;;;;;66.28;10.93;;;12.50;98.60;;;;;;5003652;28;20117;-59
2024/03/20 10:39:47;;;;;;;63.75;11.80;;;12.50;98.70;;;;;;5004504;28;20033;-59
2024/03/20 10:42:13;;;;;;;79.57;11.30;;;12.50;98.90;;;;;;5004983;28;20499;-60
2024/03/20 10:44:39;;;;;;;62.10;11.38;;;12.60;99.00;;;;;;5004939;28;20033;-60
2024/03/20 10:47:05;;;;;;;85.25;11.98;;;12.60;98.90;;;;;;4988239;28;20033;-60
2024/03/20 10:49:31;;;;;;;101.68;14.02;;;12.60;98.70;;;;;;4992461;28;20062;-59
2024/03/20 10:51:56;;;;;;;85.10;11.65;;;12.60;98.50;;;;;;5008802;28;20052;-59
2024/03/20 10:54:22;;;;;;;52.72;9.20;;;12.70;98.80;;;;;;5021242;28;20105;-59
2024/03/20 10:56:51;;;;;;;55.60;10.00;;;12.70;98.70;;;;;;4989126;28;20572;-59
2024/03/20 10:59:21;;;;;;;62.90;10.30;;;12.80;98.70;;;;;;5006981;28;20036;-59
2024/03/20 11:02:03;;;;;;;53.80;9.73;;;12.80;98.70;;;;;;5015421;28;20032;-59
2024/03/20 11:04:36;;;;;;;69.53;11.80;;;12.80;98.70;;;;;;5023093;28;20032;-59
2024/03/20 11:07:21;;;;;;;60.67;10.52;;;12.90;98.70;;;;;;5023444;28;20026;-60
2024/03/20 11:09:46;;;;;;;106.80;13.95;;;12.90;98.70;;;;;;5002970;28;20034;-59
2024/03/20 11:12:45;;;;;;;92.28;13.60;;;12.90;98.90;;;;;;5001987;28;20485;-59
2024/03/20 11:15:14;;;;;;;90.85;13.00;;;13.00;98.90;;;;;;5014956;28;20044;-59
2024/03/20 11:17:40;;;;;;;73.75;12.43;;;13.00;99.00;;;;;;5001719;28;20049;-59
2024/03/20 11:20:06;;;;;;;80.95;12.32;;;13.10;98.80;;;;;;5003316;28;20014;-59
2024/03/20 11:22:32;;;;;;;51.58;8.88;;;13.10;98.50;;;;;;5000754;28;20026;-59
2024/03/20 11:24:58;;;;;;;37.75;8.60;;;13.10;98.30;;;;;;5000001;28;20037;-60
2024/03/20 11:27:24;;;;;;;58.53;10.50;;;13.20;98.20;;;;;;5001124;28;20026;-59
2024/03/20 11:29:50;;;;;;;64.72;11.07;;;13.20;98.10;;;;;;5002656;28;20029;-59
2024/03/20 11:32:22;;;;;;;60.55;11.30;;;13.30;98.20;;;;;;5003038;28;20038;-59
2024/03/20 11:34:47;;;;;;;96.53;12.40;;;13.30;98.20;;;;;;5006401;28;20117;-59
2024/03/20 11:37:14;;;;;;;85.45;12.52;;;13.40;98.10;;;;;;5005619;28;20119;-59
2024/03/20 11:39:41;;;;;;;107.75;14.20;;;13.40;98.00;;;;;;5006199;28;20451;-59
2024/03/20 11:42:07;;;;;;;102.03;14.43;;;13.50;97.90;;;;;;5021128;28;20056;-60
2024/03/20 11:44:35;;;;;;;107.25;14.15;;;13.50;97.90;;;;;;5005608;28;20445;-59
2024/03/20 11:47:01;;;;;;;92.25;13.30;;;13.60;97.90;;;;;;5018881;28;20042;-59
2024/03/20 11:49:27;;;;;;;69.18;11.82;;;13.60;97.80;;;;;;5023953;28;20109;-59
2024/03/20 11:51:53;;;;;;;92.07;11.85;;;13.70;97.60;;;;;;5003583;28;20077;-59
2024/03/20 11:54:19;;;;;;;104.70;11.60;;;13.70;97.50;;;;;;5022574;28;20037;-60
2024/03/20 11:56:49;;;;;;;68.38;11.93;;;13.80;97.50;;;;;;5004584;28;20041;-59
2024/03/20 11:59:16;;;;;;;87.18;11.43;;;13.80;97.50;;;;;;5000095;28;20333;-60
2024/03/20 12:01:41;;;;;;;85.38;10.15;;;13.90;97.30;;;;;;4986695;28;20037;-59
2024/03/20 12:04:10;;;;;;;103.07;13.60;;;13.90;97.20;;;;;;5001577;28;20065;-59
2024/03/20 12:06:36;;;;;;;122.07;15.20;;;13.90;97.20;;;;;;5014833;28;20014;-60
2024/03/20 12:09:13;;;;;;;220.93;22.23;;;14.00;97.20;;;;;;5004156;28;20061;-59
2024/03/20 12:11:39;;;;;;;127.75;16.48;;;14.10;97.20;;;;;;5014808;28;20038;-59
2024/03/20 12:14:05;;;;;;;175.75;19.98;;;14.10;97.30;;;;;;4973068;28;20048;-60
2024/03/20 12:16:31;;;;;;;145.73;19.02;;;14.20;97.20;;;;;;5017740;28;20480;-59
2024/03/20 12:18:58;;;;;;;177.40;19.60;;;14.20;97.10;;;;;;5000278;28;20037;-60
2024/03/20 12:21:23;;;;;;;156.80;18.63;;;14.30;97.10;;;;;;4985753;28;20037;-59
2024/03/20 12:23:50;;;;;;;104.25;13.48;;;14.30;97.00;;;;;;4997132;28;20034;-60
2024/03/20 12:26:23;;;;;;;124.82;16.08;;;14.40;97.00;;;;;;4986807;28;20041;-59
2024/03/20 12:28:50;;;;;;;106.13;12.85;;;14.40;96.90;;;;;;4983836;28;20069;-59